KINS

Creech AFB Airport

Indian Springs, Nevada, USA
METAR KINS 200658Z AUTO 29007KT 10SM BKN110 01/M17 A2993 RMK AO2 SLP132 T00061167 $
Observed Flight Rules
Feb-20 @ 06:58 UTC (16 minutes ago) Visual Flight Rules
Wind Visibility Clouds
290° at 7 knots 10 miles
  • Broken at 11,000' AGL
Temperatures Readings
Current 1°C / 34°F
Dewpoint -17°C / 1°F
Humidity 25%
Altimeter 29.93" Hg
Pressure 1013.2 hPa
Elevation 955
METAR KINS 200658Z AUTO 29007KT 10SM BKN110 01/M17 A2993 RMK AO2 SLP132 T00061167 $
Observed Flight Rules
Feb-20 @ 06:58 UTC
(16 minutes ago)
VFR
Wind Visibility
290° at 7 knots 10 miles
Clouds
  • Broken at 11,000' AGL
Temperature Dewpoint
1°C / 34°F -17°C / 1°F
Humidity Altimeter Pressure
25% 29.93" Hg 1013.2 hPa